Time;durP1;ratioP1;P1;durP2;ratioP2;P2;SDS_P1;SDS_P2;PMS_P1;PMS_P2;Temp;Humidity;BMP_temperature;BMP_pressure;BME280_temperature;BME280_humidity;BME280_pressure;Samples;Min_cycle;Max_cycle;Signal;HPM_P1;HPM_P2
2022/06/02 00:00:59;;;;;;;1.35;0.85;;;;;;;;;;5115611;28;20023;-52
2022/06/02 00:03:42;;;;;;;1.60;0.95;;;20.40;78.90;;;;;;5114975;28;20044;-53
2022/06/02 00:06:33;;;;;;;1.73;0.77;;;20.40;78.90;;;;;;5115525;28;20108;-54
2022/06/02 00:09:14;;;;;;;1.83;0.80;;;20.40;78.90;;;;;;5115141;28;20031;-52
2022/06/02 00:12:09;;;;;;;1.10;1.00;;;20.40;84.70;;;;;;5115420;28;20023;-54
2022/06/02 00:15:01;;;;;;;1.13;1.00;;;20.30;84.70;;;;;;5104259;28;20046;-51
2022/06/02 00:17:37;;;;;;;1.38;0.90;;;20.70;79.20;;;;;;5115059;28;20020;-53
2022/06/02 00:20:08;;;;;;;2.58;0.95;;;20.30;78.90;;;;;;5115171;28;20028;-50
2022/06/02 00:23:11;;;;;;;1.30;0.82;;;20.40;79.00;;;;;;5115161;28;20023;-53
2022/06/02 00:25:55;;;;;;;1.33;0.88;;;20.40;79.10;;;;;;5115138;28;20435;-53
2022/06/02 00:28:34;;;;;;;2.15;1.02;;;20.30;79.10;;;;;;5114984;28;20390;-51
2022/06/02 00:31:22;;;;;;;1.20;1.00;;;20.30;79.00;;;;;;5114726;28;20031;-52
2022/06/02 00:34:22;;;;;;;1.10;0.90;;;20.40;79.00;;;;;;5114661;28;20027;-53
2022/06/02 00:37:18;;;;;;;1.13;1.05;;;20.30;79.00;;;;;;5114029;28;20035;-53
2022/06/02 00:39:46;;;;;;;1.17;1.00;;;20.30;84.90;;;;;;5114602;28;20579;-52
2022/06/02 00:42:27;;;;;;;1.65;1.05;;;20.30;79.20;;;;;;5114771;28;20023;-52
2022/06/02 00:44:59;;;;;;;1.27;0.80;;;20.20;84.80;;;;;;5114567;28;20042;-51
2022/06/02 00:48:08;;;;;;;1.63;0.88;;;20.30;79.00;;;;;;5114747;28;20500;-52
2022/06/02 00:50:57;;;;;;;1.10;0.90;;;20.30;79.20;;;;;;5114293;28;20136;-52
2022/06/02 00:59:58;;;;;;;1.25;0.80;;;20.30;79.20;;;;;;5114502;28;20050;-54
2022/06/02 01:02:26;;;;;;;;;;;20.20;85.20;;;;;;5114451;28;20121;-54
2022/06/02 01:04:54;;;;;;;2.47;0.90;;;20.20;85.00;;;;;;5114119;28;20380;-54
2022/06/02 01:07:43;;;;;;;1.13;0.85;;;20.30;79.20;;;;;;5113931;28;20035;-54
2022/06/02 01:10:47;;;;;;;1.25;0.75;;;20.20;79.30;;;;;;5114037;28;20518;-51
2022/06/02 01:13:40;;;;;;;1.27;1.00;;;20.10;79.20;;;;;;5057406;28;20556;-51
2022/06/02 01:16:06;;;;;;;0.85;0.73;;;;;;;;;;5114119;28;20408;-53
2022/06/02 01:19:09;;;;;;;1.30;0.90;;;20.20;79.20;;;;;;5113843;28;20059;-50
2022/06/02 01:21:40;;;;;;;2.00;0.80;;;20.20;79.30;;;;;;5011207;28;20113;-54
2022/06/02 01:24:06;;;;;;;2.92;0.88;;;;;;;;;;5096128;28;20058;-51
2022/06/02 01:26:32;;;;;;;1.00;0.88;;;;;;;;;;5113553;28;20028;-52
2022/06/02 01:29:20;;;;;;;1.77;1.10;;;20.20;85.20;;;;;;5113570;28;20042;-54
2022/06/02 01:32:07;;;;;;;1.45;0.88;;;20.20;79.30;;;;;;5099115;28;20036;-52
2022/06/02 01:34:56;;;;;;;1.73;0.88;;;20.10;79.30;;;;;;5113800;28;20031;-53
2022/06/02 01:37:40;;;;;;;2.53;1.10;;;20.20;79.30;;;;;;5113479;28;20378;-51
2022/06/02 01:40:06;;;;;;;0.93;0.90;;;;;;;;;;5113526;28;20028;-51
2022/06/02 01:42:32;;;;;;;1.50;0.80;;;;;;;;;;5113391;28;20405;-53
2022/06/02 01:45:26;;;;;;;1.08;0.98;;;20.20;79.40;;;;;;5113306;28;20019;-54
2022/06/02 01:48:15;;;;;;;1.40;0.90;;;20.10;79.30;;;;;;5113229;28;20046;-54
2022/06/02 01:51:10;;;;;;;1.43;0.90;;;20.20;85.20;;;;;;5113530;28;20152;-54
2022/06/02 01:53:44;;;;;;;0.82;0.82;;;20.00;79.20;;;;;;5099726;28;20498;-55
2022/06/02 01:56:25;;;;;;;0.80;0.75;;;20.10;79.20;;;;;;5113382;28;20024;-51
2022/06/02 01:59:02;;;;;;;1.33;0.80;;;20.10;85.10;;;;;;5113150;28;20036;-50
2022/06/02 02:01:36;;;;;;;0.80;0.80;;;20.10;79.20;;;;;;5111961;28;20027;-53
2022/06/02 02:04:26;;;;;;;2.88;1.10;;;20.10;79.50;;;;;;5112987;28;20043;-54
2022/06/02 02:06:57;;;;;;;;;;;20.10;80.40;;;;;;5113327;28;20077;-54
2022/06/02 02:09:45;;;;;;;2.17;0.88;;;20.10;79.30;;;;;;5112904;28;19907;-54
2022/06/02 02:12:42;;;;;;;2.03;1.20;;;20.00;79.30;;;;;;5112858;28;20031;-54
2022/06/02 02:15:26;;;;;;;0.68;0.60;;;20.10;79.40;;;;;;5071377;28;20039;-54
2022/06/02 02:18:16;;;;;;;1.50;0.80;;;20.10;79.30;;;;;;5112831;28;20058;-54
2022/06/02 02:21:24;;;;;;;0.90;0.70;;;20.10;79.50;;;;;;5112750;28;20034;-52
2022/06/02 02:24:08;;;;;;;1.38;0.65;;;20.20;79.60;;;;;;5112693;28;20305;-53
2022/06/02 02:26:59;;;;;;;1.75;1.13;;;20.00;85.20;;;;;;5112551;28;20092;-53
2022/06/02 02:29:36;;;;;;;0.75;0.60;;;20.00;79.50;;;;;;5112588;28;20055;-52
2022/06/02 02:32:23;;;;;;;1.00;0.75;;;20.00;79.40;;;;;;5112657;28;20031;-52
2022/06/02 02:35:06;;;;;;;1.42;0.88;;;20.00;79.60;;;;;;5112678;28;20107;-53
2022/06/02 02:37:43;;;;;;;1.67;0.80;;;20.20;85.30;;;;;;5112535;28;20027;-54
2022/06/02 02:40:32;;;;;;;1.38;0.68;;;20.10;79.50;;;;;;5112530;28;20382;-51
2022/06/02 02:43:07;;;;;;;1.48;0.98;;;20.00;79.40;;;;;;5112537;28;20266;-52
2022/06/02 02:45:48;;;;;;;1.45;0.88;;;20.00;79.60;;;;;;5112261;28;20034;-51
2022/06/02 02:48:44;;;;;;;0.77;0.70;;;19.90;79.50;;;;;;5112373;28;20130;-51
2022/06/02 02:51:19;;;;;;;1.60;0.90;;;19.90;79.60;;;;;;5112473;28;20031;-53
2022/06/02 02:53:59;;;;;;;0.80;0.80;;;19.90;79.50;;;;;;5112530;28;20385;-52
2022/06/02 02:56:37;;;;;;;1.23;0.90;;;19.90;79.50;;;;;;5112374;28;20042;-50
2022/06/02 02:59:23;;;;;;;1.25;0.80;;;20.00;85.70;;;;;;5112388;28;20063;-53
2022/06/02 03:02:04;;;;;;;1.38;1.10;;;20.00;79.70;;;;;;5060782;28;20386;-52
2022/06/02 03:04:51;;;;;;;1.40;0.80;;;19.90;79.60;;;;;;5112324;28;20047;-52
2022/06/02 03:07:18;;;;;;;1.02;0.90;;;19.90;85.50;;;;;;5112180;28;20123;-54
2022/06/02 03:09:44;;;;;;;1.25;0.95;;;;;;;;;;5112178;28;20165;-53
2022/06/02 03:12:29;;;;;;;1.50;1.00;;;19.90;85.50;;;;;;5113893;28;20526;-51
2022/06/02 03:14:58;;;;;;;1.17;0.45;;;19.80;79.50;;;;;;5098281;28;20039;-53
2022/06/02 03:18:05;;;;;;;1.88;1.17;;;19.90;79.70;;;;;;5116114;28;20036;-51
2022/06/02 03:20:46;;;;;;;2.35;0.70;;;19.90;85.60;;;;;;5116076;28;20111;-53
2022/06/02 03:23:27;;;;;;;1.30;0.77;;;;;;;;;;5116071;28;20023;-50
2022/06/02 03:26:22;;;;;;;1.10;0.98;;;19.90;79.80;;;;;;5115923;28;20023;-51
2022/06/02 03:28:54;;;;;;;0.80;0.80;;;19.90;79.80;;;;;;5106923;28;20484;-51
2022/06/02 03:31:31;;;;;;;1.15;0.88;;;19.80;79.50;;;;;;5115840;28;20028;-60
2022/06/02 03:34:06;;;;;;;1.08;0.95;;;20.00;79.50;;;;;;5116113;28;20363;-60
2022/06/02 03:37:11;;;;;;;1.85;1.27;;;19.30;79.20;;;;;;5115761;28;20093;-60
2022/06/02 03:39:37;;;;;;;1.00;0.90;;;;;;;;;;5079221;28;20042;-59
2022/06/02 03:42:03;;;;;;;0.93;0.82;;;;;;;;;;5115691;28;20028;-59
2022/06/02 03:44:59;;;;;;;1.58;0.82;;;19.80;79.40;;;;;;5115681;28;20102;-60
2022/06/02 03:47:45;;;;;;;1.42;1.02;;;19.80;79.50;;;;;;5115553;28;20075;-60
2022/06/02 03:50:26;;;;;;;1.30;1.08;;;19.80;79.40;;;;;;5115579;28;20031;-60
2022/06/02 03:53:07;;;;;;;1.10;1.00;;;20.00;79.60;;;;;;5115493;28;20457;-60
2022/06/02 03:55:47;;;;;;;2.05;1.00;;;19.80;79.60;;;;;;5115504;28;20034;-60
2022/06/02 03:58:25;;;;;;;0.98;0.90;;;20.00;79.60;;;;;;5115656;28;20378;-60
2022/06/02 04:00:57;;;;;;;1.05;0.90;;;20.00;79.50;;;;;;5115421;28;20023;-60
2022/06/02 04:03:48;;;;;;;1.45;1.00;;;19.80;79.70;;;;;;5115111;28;20092;-60
2022/06/02 04:06:14;;;;;;;1.20;0.80;;;;;;;;;;5115360;28;20035;-60
2022/06/02 04:08:40;;;;;;;0.75;0.70;;;;;;;;;;5115164;28;20046;-60
2022/06/02 04:13:37;;;;;;;0.85;0.70;;;19.80;79.60;;;;;;5115353;28;20099;-60
2022/06/02 04:14:34;;;;;;;0.88;0.75;;;19.80;85.60;;;;;;5115025;28;20073;-60
2022/06/02 04:17:27;;;;;;;1.00;0.90;;;19.60;79.50;;;;;;5115047;28;20537;-60
2022/06/02 04:20:34;;;;;;;1.38;0.85;;;19.80;79.40;;;;;;5114904;28;20035;-59
2022/06/02 04:23:37;;;;;;;1.00;0.85;;;19.80;79.80;;;;;;5114158;28;20032;-60
2022/06/02 04:26:18;;;;;;;0.90;0.90;;;19.70;79.80;;;;;;5114847;28;20474;-50
2022/06/02 04:28:44;;;;;;;0.80;0.80;;;;;;;;;;5114803;28;20130;-53
2022/06/02 04:31:32;;;;;;;1.10;0.82;;;19.70;79.80;;;;;;5114752;28;20055;-51
2022/06/02 04:34:19;;;;;;;0.93;0.82;;;19.70;79.80;;;;;;5114704;28;20500;-51
2022/06/02 04:37:04;;;;;;;1.50;1.05;;;19.80;79.90;;;;;;5114638;28;20466;-51
2022/06/02 04:39:42;;;;;;;2.25;1.08;;;20.00;86.20;;;;;;5114883;28;20034;-53
2022/06/02 04:42:08;;;;;;;1.58;1.02;;;;;;;;;;5114572;28;20060;-52
2022/06/02 04:44:41;;;;;;;0.95;0.75;;;;;;;;;;5114606;28;20396;-53
2022/06/02 04:47:22;;;;;;;1.02;0.73;;;19.70;85.60;;;;;;5114327;28;20088;-51
2022/06/02 04:50:01;;;;;;;1.13;1.02;;;19.70;85.70;;;;;;5114440;28;20020;-54
2022/06/02 04:52:51;;;;;;;0.88;0.80;;;19.70;79.80;;;;;;5114415;28;20456;-51
2022/06/02 04:55:36;;;;;;;0.88;0.70;;;19.70;79.80;;;;;;5114316;28;20095;-54
2022/06/02 04:58:15;;;;;;;1.30;1.10;;;19.70;79.70;;;;;;5114261;28;20099;-54
2022/06/02 05:00:57;;;;;;;1.00;1.00;;;19.70;79.70;;;;;;5114280;28;20119;-54
2022/06/02 05:03:33;;;;;;;0.90;0.80;;;19.70;80.00;;;;;;5114007;28;20054;-50
2022/06/02 05:06:21;;;;;;;2.05;0.85;;;19.70;80.00;;;;;;5114328;28;20031;-51
2022/06/02 05:08:58;;;;;;;0.65;0.63;;;19.70;80.10;;;;;;5113946;28;20040;-54
2022/06/02 05:11:24;;;;;;;1.30;1.00;;;;;;;;;;5114000;28;20024;-52
2022/06/02 05:14:15;;;;;;;1.40;1.00;;;19.60;80.60;;;;;;5113915;28;20031;-55
2022/06/02 05:16:53;;;;;;;1.23;0.80;;;19.60;86.50;;;;;;5113857;28;20034;-54
2022/06/02 05:19:56;;;;;;;2.05;1.10;;;19.70;80.60;;;;;;5113604;28;20590;-55
2022/06/02 05:22:30;;;;;;;1.83;1.15;;;19.70;80.90;;;;;;5113564;28;20059;-58
2022/06/02 05:24:56;;;;;;;0.93;0.93;;;;;;;;;;5113672;28;20032;-58
2022/06/02 05:27:39;;;;;;;1.42;1.10;;;19.70;81.40;;;;;;5113490;28;20042;-58
2022/06/02 05:30:36;;;;;;;1.48;0.70;;;19.80;80.70;;;;;;5113457;28;20107;-57
2022/06/02 05:33:20;;;;;;;2.08;0.80;;;19.80;80.70;;;;;;5113520;28;20023;-58
2022/06/02 05:36:06;;;;;;;0.88;0.80;;;20.00;80.70;;;;;;5113480;28;20382;-60
2022/06/02 05:38:53;;;;;;;1.15;0.70;;;19.80;80.50;;;;;;5113485;28;20020;-59
2022/06/02 05:41:19;;;;;;;0.88;0.82;;;;;;;;;;5113404;28;20409;-58
2022/06/02 05:44:19;;;;;;;1.13;0.77;;;19.70;80.40;;;;;;5113409;28;20024;-58
2022/06/02 05:47:06;;;;;;;1.17;1.08;;;19.70;86.30;;;;;;5113304;28;20077;-59
2022/06/02 05:50:02;;;;;;;1.52;0.75;;;20.20;80.80;;;;;;5113352;28;20050;-59
2022/06/02 05:52:39;;;;;;;2.45;0.80;;;19.80;86.50;;;;;;5092066;28;20046;-59
2022/06/02 05:55:25;;;;;;;1.70;0.57;;;20.00;86.60;;;;;;5113146;28;20046;-57
2022/06/02 05:58:35;;;;;;;4.47;0.70;;;19.80;80.60;;;;;;5113265;28;20027;-58
2022/06/02 06:01:22;;;;;;;0.68;0.50;;;19.80;80.90;;;;;;5107974;28;20058;-54
2022/06/02 06:04:25;;;;;;;0.82;0.70;;;19.80;80.80;;;;;;5112784;28;20138;-54
2022/06/02 06:07:13;;;;;;;2.10;0.70;;;19.80;81.50;;;;;;5112776;28;20036;-56
2022/06/02 06:10:16;;;;;;;0.77;0.70;;;19.80;81.20;;;;;;5112935;28;20047;-56
2022/06/02 06:12:53;;;;;;;2.45;0.80;;;19.80;81.50;;;;;;5112945;28;20031;-57
2022/06/02 06:15:28;;;;;;;1.42;0.80;;;19.80;81.20;;;;;;5112777;28;20028;-56
2022/06/02 06:18:10;;;;;;;1.55;0.70;;;19.60;81.10;;;;;;5112795;28;20031;-56
2022/06/02 06:21:00;;;;;;;3.53;0.68;;;19.90;81.30;;;;;;5112842;28;20032;-56
2022/06/02 06:23:40;;;;;;;;;;;19.90;82.50;;;;;;5113106;28;20486;-55
2022/06/02 06:26:57;;;;;;;1.70;0.70;;;19.90;80.90;;;;;;5113117;28;19991;-55
2022/06/02 06:30:00;;;;;;;0.60;0.40;;;20.00;80.50;;;;;;5070154;28;20410;-55
2022/06/02 06:33:03;;;;;;;0.95;0.60;;;19.80;80.60;;;;;;5112621;28;20028;-55
2022/06/02 06:35:29;;;;;;;1.38;0.80;;;;;;;;;;5112692;28;20035;-54
2022/06/02 06:38:07;;;;;;;0.55;0.43;;;19.90;86.10;;;;;;5112808;28;20020;-52
2022/06/02 06:40:54;;;;;;;0.50;0.50;;;19.90;80.10;;;;;;5112683;28;20477;-55
2022/06/02 06:43:47;;;;;;;2.90;0.80;;;19.90;86.60;;;;;;5112558;28;20035;-54
2022/06/02 06:46:41;;;;;;;2.25;0.40;;;20.00;80.50;;;;;;5112424;28;20046;-54
2022/06/02 06:49:21;;;;;;;4.00;0.70;;;20.00;80.50;;;;;;5117054;28;20123;-52
2022/06/02 06:52:18;;;;;;;5.07;0.98;;;19.90;80.50;;;;;;5117128;28;20064;-53
2022/06/02 06:55:22;;;;;;;0.93;0.70;;;19.90;80.30;;;;;;5116774;28;20176;-54
2022/06/02 06:58:24;;;;;;;2.60;0.65;;;20.10;80.60;;;;;;5116604;28;20069;-54
2022/06/02 07:01:03;;;;;;;1.17;0.70;;;20.10;86.40;;;;;;5116315;28;20126;-52
2022/06/02 07:03:29;;;;;;;1.42;0.80;;;;;;;;;;5116318;28;20305;-56
2022/06/02 07:06:02;;;;;;;1.65;0.68;;;20.00;86.30;;;;;;5116591;28;20646;-56
2022/06/02 07:08:43;;;;;;;2.72;0.95;;;20.00;80.40;;;;;;5116435;28;20035;-56
2022/06/02 07:12:50;;;;;;;2.28;0.70;;;;;;;;;;5116535;28;20051;-56
2022/06/02 07:14:04;;;;;;;1.67;0.70;;;19.90;86.20;;;;;;5116195;28;20035;-56
2022/06/02 07:16:30;;;;;;;1.38;0.73;;;;;;;;;;5116277;28;20027;-56
2022/06/02 07:18:56;;;;;;;1.35;0.75;;;;;;;;;;5116069;28;20027;-55
2022/06/02 07:21:48;;;;;;;2.50;0.80;;;20.20;80.40;;;;;;5116237;28;20099;-55
2022/06/02 07:24:32;;;;;;;2.05;0.70;;;20.40;80.40;;;;;;5116275;28;20036;-56
2022/06/02 07:27:12;;;;;;;1.27;0.90;;;20.10;80.20;;;;;;5116065;28;20432;-56
2022/06/02 07:29:39;;;;;;;0.98;0.77;;;;;;;;;;5116134;28;20032;-55
2022/06/02 07:32:30;;;;;;;0.60;0.50;;;20.00;86.00;;;;;;5116049;28;20023;-56
2022/06/02 07:35:40;;;;;;;1.13;0.73;;;20.00;80.10;;;;;;5102197;28;20104;-56
2022/06/02 07:38:17;;;;;;;2.78;0.98;;;20.00;80.00;;;;;;5013156;28;20025;-56
2022/06/02 07:40:43;;;;;;;2.70;0.60;;;;;;;;;;5013206;28;20515;-56
2022/06/02 07:43:43;;;;;;;0.60;0.60;;;19.90;79.80;;;;;;5073041;28;20036;-55
2022/06/02 07:46:38;;;;;;;0.80;0.50;;;20.00;79.60;;;;;;5115845;28;20080;-56
2022/06/02 07:49:19;;;;;;;1.30;0.75;;;20.00;79.80;;;;;;5115698;28;20035;-54
2022/06/02 07:52:22;;;;;;;2.55;0.80;;;20.00;79.60;;;;;;5115676;28;20028;-55
2022/06/02 07:54:48;;;;;;;2.05;0.98;;;;;;;;;;5115591;28;20088;-56
2022/06/02 07:57:35;;;;;;;1.05;0.55;;;19.90;79.70;;;;;;5115650;28;20020;-56
2022/06/02 08:00:17;;;;;;;0.55;0.55;;;19.90;79.70;;;;;;5115396;28;20028;-56
2022/06/02 08:03:23;;;;;;;1.73;0.80;;;20.00;79.60;;;;;;5115117;28;20036;-55
2022/06/02 08:06:35;;;;;;;1.77;0.70;;;19.80;79.20;;;;;;5115242;28;20023;-57
2022/06/02 08:09:27;;;;;;;0.93;0.70;;;19.90;79.20;;;;;;5105735;28;20050;-54
2022/06/02 08:11:54;;;;;;;0.98;0.60;;;;;;;;;;5115426;28;20023;-54
2022/06/02 08:14:22;;;;;;;1.52;0.70;;;;;;;;;;5115111;28;20077;-55
2022/06/02 08:17:07;;;;;;;1.15;0.50;;;20.00;79.60;;;;;;5115399;28;20027;-55
2022/06/02 08:19:58;;;;;;;0.77;0.60;;;20.00;79.50;;;;;;5115114;28;20027;-54
2022/06/02 08:22:46;;;;;;;2.63;0.60;;;20.00;85.50;;;;;;5101386;28;20115;-55
2022/06/02 08:25:16;;;;;;;0.82;0.82;;;20.00;85.30;;;;;;5115138;28;20076;-56
2022/06/02 08:28:23;;;;;;;0.80;0.57;;;19.80;79.40;;;;;;5115236;28;20064;-56
2022/06/02 08:31:13;;;;;;;1.00;0.60;;;20.20;79.80;;;;;;5012187;28;20388;-53
2022/06/02 08:34:00;;;;;;;1.23;0.70;;;20.10;79.60;;;;;;5110291;28;20520;-56
2022/06/02 08:36:30;;;;;;;1.95;0.70;;;20.20;85.70;;;;;;5115174;28;20385;-56
2022/06/02 08:39:30;;;;;;;1.05;0.60;;;20.10;85.40;;;;;;5114779;28;20028;-56
2022/06/02 08:41:56;;;;;;;2.42;0.73;;;;;;;;;;5114675;28;20080;-56
2022/06/02 08:44:50;;;;;;;0.90;0.60;;;20.30;85.30;;;;;;5114715;28;20420;-56
2022/06/02 08:47:36;;;;;;;0.60;0.50;;;20.30;79.30;;;;;;5114537;28;20111;-56
2022/06/02 08:50:10;;;;;;;1.15;0.50;;;;;;;;;;5114551;28;20020;-55
2022/06/02 08:53:12;;;;;;;1.35;0.65;;;20.50;79.40;;;;;;5114758;28;20397;-56
2022/06/02 08:56:06;;;;;;;0.82;0.50;;;20.40;78.70;;;;;;5114421;28;20066;-56
2022/06/02 08:58:57;;;;;;;0.77;0.73;;;20.50;79.50;;;;;;5114692;28;20374;-54
2022/06/02 09:01:37;;;;;;;0.50;0.50;;;20.90;79.70;;;;;;5114400;28;20114;-56
2022/06/02 09:04:27;;;;;;;0.90;0.43;;;20.50;79.50;;;;;;5114294;28;20051;-52
2022/06/02 09:07:29;;;;;;;1.02;0.60;;;20.50;79.30;;;;;;5114126;28;20479;-55
2022/06/02 09:10:23;;;;;;;0.68;0.60;;;20.50;78.90;;;;;;5113564;28;20027;-55
2022/06/02 09:13:01;;;;;;;0.70;0.70;;;20.60;79.00;;;;;;5114068;28;20027;-55
2022/06/02 09:15:56;;;;;;;0.55;0.55;;;20.50;78.50;;;;;;5114069;28;20031;-55
2022/06/02 09:19:00;;;;;;;1.45;0.60;;;20.70;78.70;;;;;;5114074;28;20386;-56
2022/06/02 09:21:33;;;;;;;0.88;0.50;;;20.80;84.60;;;;;;5011238;28;20388;-55
2022/06/02 09:24:15;;;;;;;0.50;0.50;;;20.70;78.80;;;;;;5011224;28;20164;-53
2022/06/02 09:27:19;;;;;;;0.98;0.63;;;20.60;78.70;;;;;;5075700;28;20028;-55
2022/06/02 09:29:59;;;;;;;0.65;0.60;;;20.80;78.80;;;;;;5066348;28;20053;-55
2022/06/02 09:32:48;;;;;;;0.60;0.50;;;20.80;78.80;;;;;;5113676;28;20028;-56
2022/06/02 09:35:22;;;;;;;0.52;0.50;;;20.80;78.70;;;;;;5113886;28;20023;-55
2022/06/02 09:38:25;;;;;;;0.85;0.60;;;20.90;78.60;;;;;;5113877;28;20379;-55
2022/06/02 09:41:13;;;;;;;0.60;0.50;;;20.90;84.40;;;;;;5113826;28;20451;-55
2022/06/02 09:44:03;;;;;;;2.05;0.60;;;20.90;78.40;;;;;;5113478;28;20024;-55
2022/06/02 09:46:48;;;;;;;;;;;20.90;79.30;;;;;;5113832;28;20030;-55
2022/06/02 09:49:39;;;;;;;0.40;0.40;;;21.00;78.30;;;;;;5113336;28;20059;-56
2022/06/02 09:52:10;;;;;;;0.52;0.50;;;21.00;83.80;;;;;;5113252;28;20055;-55
2022/06/02 09:54:55;;;;;;;0.45;0.40;;;21.00;78.20;;;;;;5113364;28;20027;-55
2022/06/02 09:57:56;;;;;;;0.47;0.40;;;21.10;78.10;;;;;;5113373;28;20375;-56
2022/06/02 10:00:39;;;;;;;1.45;0.43;;;21.10;78.10;;;;;;5113477;28;20050;-56
2022/06/02 10:03:32;;;;;;;0.38;0.38;;;21.10;77.90;;;;;;5112908;28;20056;-55
2022/06/02 10:06:12;;;;;;;0.38;0.38;;;21.20;77.40;;;;;;5113067;28;20032;-55
2022/06/02 10:09:01;;;;;;;;;;;21.20;78.40;;;;;;5113663;28;20115;-55
2022/06/02 10:12:54;;;;;;;0.47;0.40;;;21.20;76.00;;;;;;5113212;28;19903;-55
2022/06/02 10:14:45;;;;;;;0.57;0.40;;;;;;;;;;5112906;28;20114;-55
2022/06/02 10:17:34;;;;;;;0.50;0.30;;;21.20;82.60;;;;;;5112899;28;20114;-54
2022/06/02 10:20:50;;;;;;;0.55;0.50;;;21.20;76.90;;;;;;5113137;28;20106;-55
2022/06/02 10:23:28;;;;;;;1.02;0.60;;;22.50;77.60;;;;;;5069351;28;20054;-56
2022/06/02 10:26:21;;;;;;;0.73;0.40;;;21.30;76.90;;;;;;5112794;28;20031;-55
2022/06/02 10:29:12;;;;;;;0.95;0.50;;;21.30;76.90;;;;;;5112691;28;20071;-55
2022/06/02 10:31:59;;;;;;;0.40;0.40;;;21.40;77.00;;;;;;5113036;28;20023;-56
2022/06/02 10:34:31;;;;;;;0.50;0.50;;;21.40;76.80;;;;;;5112705;28;20032;-56
2022/06/02 10:37:44;;;;;;;0.47;0.47;;;21.30;76.60;;;;;;5112911;28;20142;-56
2022/06/02 10:40:17;;;;;;;0.65;0.45;;;21.40;76.80;;;;;;5090436;28;20506;-56
2022/06/02 10:42:55;;;;;;;0.90;0.60;;;21.50;76.60;;;;;;5112613;28;20106;-56
2022/06/02 10:46:04;;;;;;;0.80;0.50;;;21.50;76.50;;;;;;5112664;28;20445;-56
2022/06/02 10:48:51;;;;;;;0.40;0.40;;;21.50;76.70;;;;;;5079155;28;20048;-56
2022/06/02 10:51:37;;;;;;;0.38;0.38;;;21.50;76.30;;;;;;5112649;28;20032;-54
2022/06/02 10:54:16;;;;;;;0.57;0.43;;;21.60;76.50;;;;;;5112657;28;20034;-55
2022/06/02 10:56:45;;;;;;;1.50;0.57;;;21.60;76.10;;;;;;5112544;28;20051;-56
2022/06/02 10:59:19;;;;;;;0.77;0.40;;;21.40;75.50;;;;;;5112746;28;20093;-56
2022/06/02 11:02:02;;;;;;;0.50;0.43;;;21.50;76.10;;;;;;5112288;28;20027;-55
2022/06/02 11:05:18;;;;;;;0.50;0.30;;;21.70;76.20;;;;;;5112435;28;20391;-56
2022/06/02 11:08:09;;;;;;;0.57;0.50;;;21.60;75.60;;;;;;5009867;28;20049;-55
2022/06/02 11:10:35;;;;;;;0.30;0.30;;;;;;;;;;5112552;28;20035;-55
2022/06/02 11:13:01;;;;;;;1.00;0.57;;;;;;;;;;5112377;28;20077;-54
2022/06/02 11:16:04;;;;;;;2.13;0.40;;;21.70;75.70;;;;;;5112361;28;20028;-56
2022/06/02 11:18:56;;;;;;;0.50;0.35;;;21.70;75.70;;;;;;5112234;28;20034;-55
2022/06/02 11:21:40;;;;;;;0.75;0.35;;;21.70;75.80;;;;;;5112369;28;20036;-56
2022/06/02 11:24:46;;;;;;;2.05;0.47;;;21.70;75.60;;;;;;5112592;28;20054;-55
2022/06/02 11:27:36;;;;;;;0.45;0.45;;;21.80;75.50;;;;;;5112314;28;20031;-54
2022/06/02 11:30:02;;;;;;;0.57;0.50;;;;;;;;;;5112361;28;20035;-55
2022/06/02 11:32:54;;;;;;;0.73;0.50;;;21.80;75.30;;;;;;5112820;28;20023;-55
2022/06/02 11:35:25;;;;;;;1.08;0.55;;;21.80;75.30;;;;;;5111150;28;20517;-56
2022/06/02 11:37:51;;;;;;;0.40;0.40;;;;;;;;;;5115931;28;20070;-55
2022/06/02 11:40:18;;;;;;;1.05;0.50;;;;;;;;;;5115938;28;20520;-56
2022/06/02 11:43:10;;;;;;;0.40;0.40;;;21.90;75.20;;;;;;5115819;28;20031;-53
2022/06/02 11:46:04;;;;;;;0.52;0.30;;;21.80;75.00;;;;;;5116089;28;20107;-55
2022/06/02 11:49:10;;;;;;;0.30;0.30;;;21.90;74.80;;;;;;5115679;28;20040;-52
2022/06/02 11:51:36;;;;;;;0.65;0.40;;;;;;;;;;5115637;28;20055;-55
2022/06/02 11:54:12;;;;;;;1.15;0.52;;;22.00;80.80;;;;;;5115691;28;20497;-51
2022/06/02 11:57:29;;;;;;;1.10;0.52;;;21.90;75.20;;;;;;5098065;28;20024;-55
2022/06/02 12:00:32;;;;;;;0.63;0.63;;;21.90;75.00;;;;;;5072368;28;20078;-54
2022/06/02 12:02:57;;;;;;;0.47;0.40;;;;;;;;;;5115231;28;20108;-56
2022/06/02 12:05:42;;;;;;;0.60;0.40;;;22.00;74.80;;;;;;5115639;28;20024;-56
2022/06/02 12:08:33;;;;;;;0.43;0.43;;;21.90;74.70;;;;;;5115282;28;20035;-56
2022/06/02 12:11:17;;;;;;;0.32;0.30;;;22.00;74.60;;;;;;5115366;28;20030;-54
2022/06/02 12:13:55;;;;;;;0.73;0.50;;;21.90;80.10;;;;;;5115535;28;20032;-55
2022/06/02 12:16:21;;;;;;;0.52;0.47;;;;;;;;;;5115114;28;20524;-56
2022/06/02 12:18:56;;;;;;;0.55;0.40;;;21.70;74.40;;;;;;5115118;28;20019;-53
2022/06/02 12:21:43;;;;;;;0.43;0.32;;;22.00;74.70;;;;;;5115201;28;20024;-54
2022/06/02 12:24:09;;;;;;;0.35;0.35;;;;;;;;;;5115142;28;20031;-56
2022/06/02 12:26:35;;;;;;;0.68;0.40;;;;;;;;;;5115478;28;20032;-55
2022/06/02 12:29:22;;;;;;;0.55;0.55;;;22.00;74.80;;;;;;5114744;28;20075;-50
2022/06/02 12:32:18;;;;;;;0.40;0.40;;;21.80;74.60;;;;;;5114988;28;20478;-55
2022/06/02 12:35:05;;;;;;;0.80;0.57;;;22.00;75.00;;;;;;5114914;28;20074;-56
2022/06/02 12:38:04;;;;;;;0.50;0.50;;;22.10;74.80;;;;;;5114889;28;20024;-55
2022/06/02 12:40:30;;;;;;;0.75;0.30;;;;;;;;;;5115034;28;20384;-54
2022/06/02 12:43:33;;;;;;;0.60;0.50;;;22.00;74.60;;;;;;5114763;28;20024;-56
2022/06/02 12:46:38;;;;;;;0.57;0.57;;;22.10;74.60;;;;;;5113710;28;20073;-55
2022/06/02 12:49:16;;;;;;;0.70;0.40;;;21.80;74.60;;;;;;5114614;28;20540;-55
2022/06/02 12:52:07;;;;;;;0.40;0.40;;;22.00;74.80;;;;;;5114558;28;20054;-55
2022/06/02 12:55:03;;;;;;;0.40;0.40;;;22.00;74.70;;;;;;5114436;28;20197;-55
2022/06/02 12:57:37;;;;;;;1.33;0.60;;;22.00;74.90;;;;;;5114448;28;20019;-55
2022/06/02 13:00:03;;;;;;;0.43;0.30;;;;;;;;;;5114367;28;20058;-54
2022/06/02 13:03:11;;;;;;;2.20;0.60;;;22.10;75.00;;;;;;5114135;28;20120;-52
2022/06/02 13:05:48;;;;;;;0.55;0.30;;;22.10;74.40;;;;;;5114335;28;20051;-54
2022/06/02 13:08:30;;;;;;;0.50;0.40;;;22.00;74.80;;;;;;5114258;28;20439;-55
2022/06/02 13:10:59;;;;;;;0.68;0.68;;;22.10;74.70;;;;;;5114128;28;20016;-55
2022/06/02 13:13:47;;;;;;;0.60;0.43;;;22.10;74.70;;;;;;5114457;28;20031;-56
2022/06/02 13:16:33;;;;;;;0.77;0.50;;;22.00;74.80;;;;;;5114078;28;20107;-56
2022/06/02 13:19:36;;;;;;;1.48;0.50;;;22.20;75.10;;;;;;5114068;28;20055;-54
2022/06/02 13:22:02;;;;;;;1.00;0.40;;;;;;;;;;5113920;28;20031;-55
2022/06/02 13:24:45;;;;;;;0.95;0.50;;;22.10;75.00;;;;;;5113923;28;20019;-56
2022/06/02 13:27:13;;;;;;;0.70;0.50;;;;;;;;;;5113736;28;20028;-55
2022/06/02 13:29:50;;;;;;;0.60;0.55;;;21.90;75.00;;;;;;5113791;28;20478;-56
2022/06/02 13:32:34;;;;;;;0.40;0.40;;;22.00;75.00;;;;;;5113969;28;20027;-57
2022/06/02 13:35:06;;;;;;;0.45;0.38;;;22.40;74.80;;;;;;5113851;28;20363;-56
2022/06/02 13:38:18;;;;;;;0.63;0.52;;;21.80;74.70;;;;;;5113659;28;20478;-57
2022/06/02 13:41:04;;;;;;;0.47;0.38;;;22.10;75.00;;;;;;5113911;28;20024;-56
2022/06/02 13:43:47;;;;;;;0.47;0.47;;;22.00;74.80;;;;;;5113848;28;20110;-56
2022/06/02 13:46:49;;;;;;;0.40;0.35;;;22.10;75.00;;;;;;5113687;28;20023;-57
2022/06/02 13:49:50;;;;;;;0.60;0.50;;;22.10;75.20;;;;;;5113236;28;20059;-56
2022/06/02 13:52:16;;;;;;;0.40;0.40;;;;;;;;;;5059428;28;20449;-57
2022/06/02 13:58:05;;;;;;;0.73;0.30;;;22.10;75.20;;;;;;5113475;28;20118;-56
2022/06/02 14:00:52;;;;;;;0.73;0.43;;;22.10;75.10;;;;;;5113223;28;20027;-56
2022/06/02 14:03:55;;;;;;;0.47;0.40;;;22.10;75.00;;;;;;5112898;28;20055;-57
2022/06/02 14:06:23;;;;;;;0.50;0.50;;;22.10;81.00;;;;;;5113232;28;20026;-57
2022/06/02 14:09:11;;;;;;;0.70;0.40;;;22.10;81.00;;;;;;5113025;28;20046;-55
2022/06/02 14:11:50;;;;;;;0.95;0.40;;;22.10;75.20;;;;;;5113033;28;20055;-57
2022/06/02 14:14:53;;;;;;;0.85;0.57;;;21.80;75.00;;;;;;5113141;28;20023;-57
2022/06/02 14:18:01;;;;;;;1.30;0.50;;;22.00;75.00;;;;;;5112952;28;20061;-57
2022/06/02 14:20:48;;;;;;;0.45;0.45;;;22.00;74.80;;;;;;5112850;28;20020;-57
2022/06/02 14:23:34;;;;;;;1.02;0.68;;;22.20;74.90;;;;;;5113210;28;20423;-57
2022/06/02 14:26:23;;;;;;;0.43;0.43;;;22.10;75.00;;;;;;5112925;28;20108;-54
2022/06/02 14:29:22;;;;;;;0.40;0.40;;;22.10;75.10;;;;;;5112756;28;20119;-57
2022/06/02 14:31:48;;;;;;;1.30;0.50;;;;;;;;;;5112893;28;20116;-57
2022/06/02 14:34:29;;;;;;;0.30;0.30;;;22.00;75.20;;;;;;5113086;28;20099;-56
2022/06/02 14:36:57;;;;;;;0.40;0.40;;;21.90;75.10;;;;;;5112836;28;20032;-56
2022/06/02 14:39:43;;;;;;;0.63;0.55;;;22.00;75.10;;;;;;5112718;28;20065;-55
2022/06/02 14:43:04;;;;;;;0.65;0.50;;;22.10;75.30;;;;;;5112801;28;20024;-56
2022/06/02 14:45:33;;;;;;;0.45;0.40;;;22.00;75.10;;;;;;5112925;28;20050;-56